createdAt,value
2019-03-08T00:01:27.823Z,67.11
2019-03-08T00:03:58.404Z,67.81
2019-03-08T00:06:29.254Z,67.62
2019-03-08T00:08:59.836Z,67.84
2019-03-08T00:11:30.478Z,67.78
2019-03-08T00:14:00.944Z,67.62
2019-03-08T00:16:31.399Z,67.76
2019-03-08T00:19:02.046Z,67.92
2019-03-08T00:21:32.435Z,68.12
2019-03-08T00:24:02.955Z,67.75
2019-03-08T00:26:33.398Z,67.28
2019-03-08T00:29:05.875Z,66.86
2019-03-08T00:31:36.550Z,67.06
2019-03-08T00:34:07.189Z,67.09
2019-03-08T00:36:37.787Z,66.93
2019-03-08T00:39:08.661Z,67.19
2019-03-08T00:41:38.995Z,67.57
2019-03-08T00:44:09.461Z,67.23
2019-03-08T00:46:39.910Z,67.58
2019-03-08T00:49:10.334Z,67.39
2019-03-08T00:51:40.760Z,67.21
2019-03-08T00:54:11.012Z,67.20
2019-03-08T00:56:41.457Z,67.18
2019-03-08T00:59:11.899Z,67.37
2019-03-08T01:01:42.310Z,67.34
2019-03-08T01:04:12.677Z,67.33
2019-03-08T01:06:43.024Z,67.27
2019-03-08T01:09:13.529Z,67.06
2019-03-08T01:11:45.318Z,67.15
2019-03-08T01:14:15.984Z,67.40
2019-03-08T01:16:46.445Z,67.30
2019-03-08T01:19:16.885Z,67.21
2019-03-08T01:21:47.300Z,67.92
2019-03-08T01:24:17.657Z,68.13
2019-03-08T01:26:47.945Z,67.58
2019-03-08T01:29:18.342Z,67.04
2019-03-08T01:31:48.609Z,67.21
2019-03-08T01:34:19.087Z,66.85
2019-03-08T01:36:49.410Z,67.32
2019-03-08T01:39:19.787Z,67.06
2019-03-08T01:41:50.209Z,67.17
2019-03-08T01:44:20.682Z,66.78
2019-03-08T01:46:51.115Z,67.04
2019-03-08T01:49:21.813Z,67.27
2019-03-08T01:51:52.304Z,67.31
2019-03-08T01:54:22.663Z,67.12
2019-03-08T01:56:53.011Z,66.95
2019-03-08T01:59:23.411Z,68.10
2019-03-08T02:01:54.037Z,68.13
2019-03-08T02:04:24.417Z,68.26
2019-03-08T02:06:54.844Z,67.71
2019-03-08T02:09:25.239Z,67.37
2019-03-08T02:11:55.576Z,68.13
2019-03-08T02:14:26.438Z,67.57
2019-03-08T02:16:56.902Z,67.47
2019-03-08T02:19:27.335Z,66.81
2019-03-08T02:21:57.742Z,66.00
2019-03-08T02:24:28.092Z,66.00
2019-03-08T02:26:58.739Z,65.31
2019-03-08T02:29:29.085Z,65.87
2019-03-08T02:31:59.536Z,65.93
2019-03-08T02:34:29.983Z,65.18
2019-03-08T02:37:00.438Z,64.78
2019-03-08T02:39:30.751Z,65.49
2019-03-08T02:42:01.176Z,64.02
2019-03-08T02:44:31.632Z,63.88
2019-03-08T02:47:02.097Z,63.86
2019-03-08T02:49:32.483Z,63.39
2019-03-08T02:52:03.759Z,62.75
2019-03-08T02:54:34.560Z,63.40
2019-03-08T02:57:05.332Z,62.65
2019-03-08T02:59:35.610Z,62.63
2019-03-08T03:02:06.001Z,62.47
2019-03-08T03:04:36.420Z,62.62
2019-03-08T03:07:06.850Z,62.07
2019-03-08T03:09:37.294Z,63.22
2019-03-08T03:12:07.793Z,62.71
2019-03-08T03:14:38.176Z,62.88
2019-03-08T03:17:08.599Z,62.64
2019-03-08T03:19:38.864Z,62.78
2019-03-08T03:22:09.295Z,62.79
2019-03-08T03:24:39.721Z,62.76
2019-03-08T03:27:10.165Z,62.80
2019-03-08T03:29:40.359Z,63.05
2019-03-08T03:32:10.714Z,62.91
2019-03-08T03:34:41.196Z,63.44
2019-03-08T03:37:11.626Z,63.15
2019-03-08T03:39:42.113Z,63.57
2019-03-08T03:42:12.593Z,63.75
2019-03-08T03:44:43.242Z,63.67
2019-03-08T03:47:13.656Z,63.61
2019-03-08T03:49:44.091Z,63.72
2019-03-08T03:52:14.515Z,63.53
2019-03-08T03:54:44.845Z,63.50
2019-03-08T03:57:15.623Z,63.57
2019-03-08T03:59:45.989Z,63.68
2019-03-08T04:02:16.391Z,63.54
2019-03-08T04:04:46.835Z,63.51
2019-03-08T04:07:17.249Z,63.68
2019-03-08T04:09:47.902Z,63.74
2019-03-08T04:12:18.388Z,63.87
2019-03-08T04:14:48.719Z,63.77
2019-03-08T04:17:19.192Z,63.93
2019-03-08T04:19:49.786Z,63.97
2019-03-08T04:22:20.581Z,63.75
2019-03-08T04:24:51.070Z,63.96
2019-03-08T04:27:21.511Z,64.52
2019-03-08T04:29:51.826Z,64.78
2019-03-08T04:32:22.232Z,64.70
2019-03-08T04:34:52.742Z,64.43
2019-03-08T04:37:23.172Z,64.33
2019-03-08T04:39:53.565Z,64.45
2019-03-08T04:42:23.968Z,64.76
2019-03-08T04:44:54.383Z,64.70
2019-03-08T04:47:24.772Z,64.49
2019-03-08T04:49:55.123Z,64.44
2019-03-08T04:52:25.372Z,64.23
2019-03-08T04:54:55.829Z,64.23
2019-03-08T04:57:26.179Z,64.01
2019-03-08T04:59:56.594Z,64.07
2019-03-08T05:02:28.624Z,63.90
2019-03-08T05:04:59.107Z,63.95
2019-03-08T05:07:29.523Z,64.38
2019-03-08T05:09:59.891Z,64.32
2019-03-08T05:12:31.046Z,64.19
2019-03-08T05:15:01.728Z,64.41
2019-03-08T05:17:32.030Z,64.18
2019-03-08T05:20:02.360Z,63.84
2019-03-08T05:22:32.865Z,63.90
2019-03-08T05:25:03.446Z,64.30
2019-03-08T05:27:34.112Z,64.28
2019-03-08T05:30:04.823Z,64.56
2019-03-08T05:32:35.204Z,64.58
2019-03-08T05:35:06.716Z,64.55
2019-03-08T05:37:37.027Z,64.72
2019-03-08T05:40:08.443Z,64.72
2019-03-08T05:42:38.908Z,65.08
2019-03-08T05:45:09.303Z,65.27
2019-03-08T05:47:39.733Z,65.46
2019-03-08T05:50:10.967Z,65.47
2019-03-08T05:52:41.502Z,65.73
2019-03-08T05:55:11.952Z,65.73
2019-03-08T05:57:42.598Z,65.88
2019-03-08T06:00:14.668Z,65.79
2019-03-08T06:02:45.091Z,65.60
2019-03-08T06:05:15.371Z,65.53
2019-03-08T06:07:45.795Z,65.58
2019-03-08T06:10:36.908Z,65.16
2019-03-08T06:13:08.520Z,65.37
2019-03-08T06:15:39.141Z,65.53
2019-03-08T06:18:09.543Z,65.21
2019-03-08T06:20:39.995Z,64.92
2019-03-08T06:23:10.391Z,64.33
2019-03-08T06:25:40.817Z,64.08
2019-03-08T06:28:11.301Z,63.87
2019-03-08T06:30:41.754Z,63.29
2019-03-08T06:33:12.123Z,63.42
2019-03-08T06:35:42.587Z,63.22
2019-03-08T06:38:12.884Z,63.04
2019-03-08T06:40:43.313Z,63.28
2019-03-08T06:43:13.985Z,63.00
2019-03-08T06:45:44.468Z,62.72
2019-03-08T06:48:14.922Z,62.88
2019-03-08T06:50:45.441Z,62.91
2019-03-08T06:53:15.834Z,62.92
2019-03-08T06:55:46.617Z,62.60
2019-03-08T06:58:25.206Z,62.52
2019-03-08T07:01:14.446Z,62.40
2019-03-08T07:03:44.811Z,61.23
2019-03-08T07:06:15.279Z,61.12
2019-03-08T07:08:45.603Z,61.12
2019-03-08T07:11:16.045Z,59.68
2019-03-08T07:13:46.434Z,59.47
2019-03-08T07:16:16.747Z,59.77
2019-03-08T07:18:47.505Z,59.35
2019-03-08T07:21:39.880Z,59.06
2019-03-08T07:24:16.319Z,58.72
2019-03-08T07:27:05.961Z,58.94
2019-03-08T07:29:54.024Z,57.35
2019-03-08T07:32:49.421Z,56.52
2019-03-08T07:35:28.611Z,54.90
2019-03-08T07:38:29.919Z,53.84
2019-03-08T07:41:31.203Z,53.79
2019-03-08T07:44:22.396Z,54.54
2019-03-08T07:47:17.741Z,54.93
2019-03-08T07:50:07.067Z,54.91
2019-03-08T07:53:05.742Z,55.08
2019-03-08T07:55:53.938Z,53.83
2019-03-08T07:58:51.955Z,49.58
2019-03-08T08:01:27.639Z,48.35
2019-03-08T08:04:15.624Z,46.18
2019-03-08T08:07:17.159Z,46.09
2019-03-08T08:10:03.505Z,47.65
2019-03-08T08:12:50.124Z,49.38
2019-03-08T08:15:37.555Z,49.91
2019-03-08T08:18:45.534Z,45.60
2019-03-08T08:21:23.145Z,42.83
2019-03-08T08:23:59.359Z,41.03
2019-03-08T08:26:51.186Z,43.27
2019-03-08T08:29:46.699Z,45.37
2019-03-08T08:32:39.881Z,42.10
2019-03-08T08:35:28.234Z,37.34
2019-03-08T08:38:21.105Z,34.24
2019-03-08T08:41:09.145Z,34.68
2019-03-08T08:43:58.967Z,38.17
2019-03-08T08:46:51.347Z,42.33
2019-03-08T08:49:42.169Z,43.60
2019-03-08T08:52:31.669Z,44.62
2019-03-08T08:55:15.691Z,44.08
2019-03-08T08:58:14.487Z,44.37
2019-03-08T09:01:12.887Z,45.66
2019-03-08T09:03:51.482Z,45.88
2019-03-08T09:06:47.345Z,46.07
2019-03-08T09:09:43.176Z,44.90
2019-03-08T09:12:31.169Z,45.37
2019-03-08T09:15:08.607Z,44.62
2019-03-08T09:17:50.083Z,43.44
2019-03-08T09:20:38.044Z,43.93
2019-03-08T09:23:24.311Z,45.06
2019-03-08T09:26:12.873Z,46.26
2019-03-08T09:28:54.599Z,45.61
2019-03-08T09:31:34.033Z,41.66
2019-03-08T09:34:23.557Z,37.44
2019-03-08T09:37:06.706Z,33.85
2019-03-08T09:39:54.950Z,34.04
2019-03-08T09:43:02.615Z,33.11
2019-03-08T09:45:57.927Z,33.16
2019-03-08T09:48:48.923Z,33.78
2019-03-08T09:51:40.063Z,34.57
2019-03-08T09:54:18.531Z,35.99
2019-03-08T09:57:02.620Z,35.51
2019-03-08T09:59:58.202Z,34.76
2019-03-08T10:02:53.515Z,34.94
2019-03-08T10:05:31.552Z,31.38
2019-03-08T10:08:17.349Z,27.45
2019-03-08T10:10:58.505Z,27.59
2019-03-08T10:13:53.998Z,25.78
2019-03-08T10:16:29.369Z,25.48
2019-03-08T10:19:08.676Z,27.54
2019-03-08T10:21:56.947Z,29.01
2019-03-08T10:24:49.245Z,30.25
2019-03-08T10:27:37.600Z,29.51
2019-03-08T10:30:32.063Z,26.58
2019-03-08T10:33:20.516Z,25.32
2019-03-08T10:36:12.903Z,24.43
2019-03-08T10:39:01.096Z,26.11
2019-03-08T10:41:47.210Z,27.35
2019-03-08T10:44:42.263Z,27.33
2019-03-08T10:47:55.618Z,27.60
2019-03-08T10:50:36.640Z,28.59
2019-03-08T10:53:35.165Z,31.32
2019-03-08T10:56:18.238Z,32.40
2019-03-08T10:59:13.770Z,33.93
2019-03-08T11:01:52.217Z,34.85
2019-03-08T11:04:40.018Z,33.12
2019-03-08T11:07:21.796Z,34.22
2019-03-08T11:10:23.229Z,34.91
2019-03-08T11:13:21.821Z,35.96
2019-03-08T11:16:25.046Z,36.98
2019-03-08T11:19:16.110Z,38.60
2019-03-08T11:21:59.963Z,37.50
2019-03-08T11:24:50.288Z,37.67
2019-03-08T11:27:38.690Z,40.14
2019-03-08T11:30:38.416Z,41.85
2019-03-08T11:33:33.799Z,42.62
2019-03-08T11:36:23.138Z,43.78
2019-03-08T11:39:11.929Z,43.82
2019-03-08T11:42:10.724Z,44.64
2019-03-08T11:45:09.090Z,44.65
2019-03-08T11:47:56.702Z,44.40
2019-03-08T11:50:46.462Z,46.35
2019-03-08T11:53:36.165Z,46.38
2019-03-08T11:56:25.403Z,47.77
2019-03-08T11:59:26.755Z,45.81
2019-03-08T12:02:22.779Z,45.85
2019-03-08T12:05:00.732Z,47.00
2019-03-08T12:07:51.793Z,46.91
2019-03-08T12:10:30.594Z,48.81
2019-03-08T12:13:16.612Z,48.25
2019-03-08T12:16:12.224Z,47.15
2019-03-08T12:19:00.270Z,44.71
2019-03-08T12:22:01.757Z,44.17
2019-03-08T12:24:40.106Z,45.19
2019-03-08T12:27:32.845Z,42.93
2019-03-08T12:30:33.020Z,41.23
2019-03-08T12:33:28.144Z,41.22
2019-03-08T12:36:06.225Z,40.87
2019-03-08T12:38:50.906Z,38.51
2019-03-08T12:41:49.154Z,37.30
2019-03-08T12:44:25.379Z,37.29
2019-03-08T12:47:11.434Z,38.04
2019-03-08T12:50:15.911Z,39.46
2019-03-08T12:53:08.164Z,40.86
2019-03-08T12:56:13.661Z,43.63
2019-03-08T12:59:02.885Z,44.62
2019-03-08T13:01:40.499Z,45.85
2019-03-08T13:04:28.572Z,44.88
2019-03-08T13:07:18.502Z,44.60
2019-03-08T13:09:48.960Z,44.31
2019-03-08T13:12:19.877Z,44.10
2019-03-08T13:14:50.335Z,42.66
2019-03-08T13:17:21.005Z,41.17
2019-03-08T13:19:51.452Z,41.53
2019-03-08T13:22:22.212Z,41.14
2019-03-08T13:24:52.630Z,40.51
2019-03-08T13:27:23.105Z,40.43
2019-03-08T13:29:53.602Z,40.74
2019-03-08T13:32:24.201Z,41.31
2019-03-08T13:34:55.054Z,41.16
2019-03-08T13:37:25.492Z,40.54
2019-03-08T13:39:55.964Z,41.26
2019-03-08T13:42:26.275Z,41.27
2019-03-08T13:44:56.713Z,41.74
2019-03-08T13:47:27.060Z,41.76
2019-03-08T13:49:57.472Z,41.22
2019-03-08T13:52:27.890Z,40.46
2019-03-08T13:54:58.343Z,40.81
2019-03-08T13:57:28.838Z,40.39
2019-03-08T13:59:59.308Z,41.19
2019-03-08T14:02:29.649Z,41.85
2019-03-08T14:05:00.066Z,40.71
2019-03-08T14:07:30.463Z,40.81
2019-03-08T14:10:00.830Z,40.93
2019-03-08T14:12:31.208Z,41.62
2019-03-08T14:15:01.635Z,41.24
2019-03-08T14:17:32.046Z,41.83
2019-03-08T14:20:09.425Z,42.32
2019-03-08T14:22:39.881Z,42.32
2019-03-08T14:25:10.481Z,42.14
2019-03-08T14:27:40.929Z,41.51
2019-03-08T14:30:14.420Z,41.74
2019-03-08T14:32:45.177Z,42.90
2019-03-08T14:35:16.161Z,43.36
2019-03-08T14:37:46.518Z,43.95
2019-03-08T14:40:35.011Z,44.17
2019-03-08T14:43:20.104Z,42.85
2019-03-08T14:46:01.592Z,43.74
2019-03-08T14:48:32.050Z,41.87
2019-03-08T14:51:02.697Z,42.93
2019-03-08T14:53:34.327Z,43.47
2019-03-08T14:56:04.887Z,43.81
2019-03-08T14:58:36.761Z,43.97
2019-03-08T15:01:07.458Z,44.45
2019-03-08T15:03:43.409Z,45.13
2019-03-08T15:06:09.952Z,45.36
2019-03-08T15:08:40.341Z,45.75
2019-03-08T15:11:10.971Z,45.84
2019-03-08T15:13:42.489Z,46.13
2019-03-08T15:16:12.912Z,46.42
2019-03-08T15:18:43.343Z,45.85
2019-03-08T15:21:13.771Z,48.70
2019-03-08T15:23:44.187Z,46.27
2019-03-08T15:26:14.798Z,46.25
2019-03-08T15:28:45.162Z,45.97
2019-03-08T15:31:15.624Z,45.43
2019-03-08T15:33:45.998Z,44.83
2019-03-08T15:36:16.326Z,45.34
2019-03-08T15:38:46.655Z,45.68
2019-03-08T15:41:17.122Z,45.87
2019-03-08T15:43:51.341Z,46.42
2019-03-08T15:46:22.338Z,46.96
2019-03-08T15:48:53.135Z,47.93
2019-03-08T15:51:25.197Z,48.31
2019-03-08T15:53:55.981Z,49.28
2019-03-08T15:56:26.452Z,49.49
2019-03-08T15:59:06.329Z,49.72
2019-03-08T16:01:36.759Z,49.89
2019-03-08T16:04:08.232Z,49.39
2019-03-08T16:06:39.856Z,49.03
2019-03-08T16:09:11.634Z,49.35
2019-03-08T16:11:42.121Z,49.41
2019-03-08T16:14:12.415Z,50.14
2019-03-08T16:16:42.869Z,50.69
2019-03-08T16:19:13.217Z,51.05
2019-03-08T16:21:46.725Z,51.25
2019-03-08T16:24:15.744Z,51.60
2019-03-08T16:26:46.223Z,51.75
2019-03-08T16:29:16.963Z,52.05
2019-03-08T16:32:05.968Z,52.06
2019-03-08T16:34:36.312Z,52.37
2019-03-08T16:37:14.757Z,52.21
2019-03-08T16:40:24.160Z,52.54
2019-03-08T16:43:16.077Z,52.45
2019-03-08T16:45:56.316Z,52.59
2019-03-08T16:48:40.318Z,52.75
2019-03-08T16:51:39.726Z,52.93
2019-03-08T16:54:26.792Z,53.45
2019-03-08T16:57:11.900Z,53.59
2019-03-08T17:00:04.259Z,53.64
2019-03-08T17:03:02.991Z,54.06
2019-03-08T17:06:01.282Z,54.62
2019-03-08T17:08:42.127Z,54.63
2019-03-08T17:11:43.477Z,54.80
2019-03-08T17:14:41.664Z,54.65
2019-03-08T17:17:37.001Z,54.70
2019-03-08T17:20:14.025Z,54.89
2019-03-08T17:23:03.344Z,55.21
2019-03-08T17:25:45.922Z,54.98
2019-03-08T17:28:35.192Z,55.17
2019-03-08T17:31:24.426Z,55.07
2019-03-08T17:34:14.552Z,55.02
2019-03-08T17:36:53.729Z,54.88
2019-03-08T17:39:45.942Z,54.97
2019-03-08T17:42:38.765Z,55.23
2019-03-08T17:45:27.664Z,55.12
2019-03-08T17:48:20.134Z,55.37
2019-03-08T17:51:08.464Z,55.24
2019-03-08T17:53:48.145Z,55.57
2019-03-08T17:56:43.985Z,56.36
2019-03-08T17:59:23.937Z,56.46
2019-03-08T18:02:19.411Z,56.51
2019-03-08T18:05:11.843Z,56.94
2019-03-08T18:08:13.641Z,57.57
2019-03-08T18:11:18.172Z,57.98
2019-03-08T18:14:10.786Z,58.33
2019-03-08T18:16:58.682Z,58.52
2019-03-08T18:19:47.998Z,58.67
2019-03-08T18:22:34.589Z,59.06
2019-03-08T18:25:22.208Z,59.24
2019-03-08T18:28:11.592Z,59.34
2019-03-08T18:31:07.170Z,59.50
2019-03-08T18:33:55.070Z,59.34
2019-03-08T18:36:44.532Z,59.14
2019-03-08T18:39:33.785Z,59.16
2019-03-08T18:42:13.232Z,59.60
2019-03-08T18:45:09.644Z,59.65
2019-03-08T18:47:58.902Z,59.66
2019-03-08T18:50:55.064Z,59.61
2019-03-08T18:53:36.574Z,59.29
2019-03-08T18:56:40.929Z,59.65
2019-03-08T18:59:39.373Z,60.25
2019-03-08T19:02:22.467Z,61.03
2019-03-08T19:05:03.441Z,61.15
2019-03-08T19:07:58.831Z,61.14
2019-03-08T19:10:50.893Z,61.24
2019-03-08T19:13:36.296Z,60.90
2019-03-08T19:16:25.746Z,61.46
2019-03-08T19:19:23.928Z,61.30
2019-03-08T19:22:00.405Z,61.14
2019-03-08T19:24:48.385Z,61.07
2019-03-08T19:27:27.365Z,61.60
2019-03-08T19:30:18.771Z,61.58
2019-03-08T19:33:26.618Z,61.39
2019-03-08T19:36:04.991Z,61.15
2019-03-08T19:39:00.288Z,61.29
2019-03-08T19:41:49.633Z,62.27
2019-03-08T19:44:41.690Z,62.42
2019-03-08T19:47:25.829Z,61.99
2019-03-08T19:50:23.585Z,62.19
2019-03-08T19:53:11.561Z,62.56
2019-03-08T19:56:10.137Z,62.65
2019-03-08T19:59:02.099Z,63.03
2019-03-08T20:01:41.403Z,63.42
2019-03-08T20:04:33.622Z,62.72
2019-03-08T20:07:31.972Z,62.51
2019-03-08T20:10:24.049Z,63.37
2019-03-08T20:13:12.306Z,64.02
2019-03-08T20:16:02.926Z,63.85
2019-03-08T20:19:04.309Z,63.21
2019-03-08T20:21:51.859Z,63.37
2019-03-08T20:24:39.942Z,63.10
2019-03-08T20:27:38.242Z,62.39
2019-03-08T20:30:29.515Z,62.39
2019-03-08T20:33:17.522Z,62.46
2019-03-08T20:36:09.567Z,62.50
2019-03-08T20:38:57.630Z,63.13
2019-03-08T20:41:46.933Z,63.28
2019-03-08T20:44:24.529Z,63.37
2019-03-08T20:47:02.071Z,63.41
2019-03-08T20:49:32.519Z,63.54
2019-03-08T20:52:02.778Z,63.25
2019-03-08T20:54:33.095Z,64.10
2019-03-08T20:57:03.537Z,64.36
2019-03-08T20:59:34.023Z,64.59
2019-03-08T21:02:04.453Z,64.74
2019-03-08T21:04:35.057Z,64.78
2019-03-08T21:07:06.677Z,64.78
2019-03-08T21:09:37.160Z,64.81
2019-03-08T21:12:07.588Z,65.05
2019-03-08T21:14:38.044Z,64.92
2019-03-08T21:17:08.817Z,64.92
2019-03-08T21:19:39.481Z,64.64
2019-03-08T21:22:09.926Z,64.40
2019-03-08T21:24:40.307Z,64.60
2019-03-08T21:27:10.681Z,63.90
2019-03-08T21:29:41.177Z,64.21
2019-03-08T21:32:14.192Z,64.12
2019-03-08T21:34:44.531Z,64.47
2019-03-08T21:37:14.842Z,64.53
2019-03-08T21:39:45.133Z,64.38
2019-03-08T21:42:15.613Z,64.79
2019-03-08T21:44:45.984Z,64.34
2019-03-08T21:47:16.555Z,64.40
2019-03-08T21:49:47.199Z,64.01
2019-03-08T21:52:17.628Z,64.19
2019-03-08T21:54:48.472Z,64.15
2019-03-08T21:57:19.019Z,64.67
2019-03-08T21:59:49.411Z,64.54
2019-03-08T22:02:19.832Z,64.62
2019-03-08T22:04:56.666Z,64.61
2019-03-08T22:07:27.072Z,64.62
2019-03-08T22:10:16.412Z,64.79
2019-03-08T22:12:46.759Z,64.91
2019-03-08T22:15:17.215Z,65.03
2019-03-08T22:17:47.536Z,65.00
2019-03-08T22:20:17.901Z,64.89
2019-03-08T22:22:48.339Z,64.69
2019-03-08T22:25:20.255Z,65.05
2019-03-08T22:27:50.718Z,65.25
2019-03-08T22:30:21.211Z,65.01
2019-03-08T22:32:51.711Z,65.09
2019-03-08T22:35:22.185Z,65.11
2019-03-08T22:37:52.897Z,64.96
2019-03-08T22:40:23.316Z,65.22
2019-03-08T22:42:54.130Z,65.21
2019-03-08T22:45:24.565Z,65.19
2019-03-08T22:47:55.007Z,65.60
2019-03-08T22:50:25.771Z,65.66
2019-03-08T22:52:56.249Z,65.98
2019-03-08T22:55:26.757Z,65.77
2019-03-08T22:57:57.255Z,65.66
2019-03-08T23:00:52.497Z,65.63
2019-03-08T23:03:23.405Z,65.53
2019-03-08T23:05:53.834Z,65.75
2019-03-08T23:08:24.118Z,65.32
2019-03-08T23:10:54.728Z,65.63
2019-03-08T23:13:25.336Z,65.61
2019-03-08T23:15:55.767Z,65.39
2019-03-08T23:18:26.328Z,65.43
2019-03-08T23:20:56.604Z,65.44
2019-03-08T23:23:27.029Z,65.38
2019-03-08T23:25:57.385Z,64.79
2019-03-08T23:28:46.850Z,64.81
2019-03-08T23:31:22.816Z,64.73
2019-03-08T23:33:53.280Z,65.39
2019-03-08T23:36:23.661Z,65.52
2019-03-08T23:38:54.341Z,65.33
2019-03-08T23:41:25.035Z,65.21
2019-03-08T23:43:55.409Z,65.19
2019-03-08T23:46:25.899Z,65.35
2019-03-08T23:48:56.437Z,65.12
2019-03-08T23:51:26.898Z,65.43
2019-03-08T23:53:57.452Z,65.37
2019-03-08T23:56:27.914Z,65.36
2019-03-08T23:58:58.358Z,64.83
